createdAt,value
2018-01-13T00:00:01.276Z,0.00
2018-01-13T00:00:36.701Z,0.00
2018-01-13T00:01:12.002Z,0.00
2018-01-13T00:01:47.078Z,0.00
2018-01-13T00:02:22.740Z,0.00
2018-01-13T00:02:58.033Z,0.00
2018-01-13T00:03:33.261Z,0.00
2018-01-13T00:04:08.663Z,0.00
2018-01-13T00:04:44.086Z,0.00
2018-01-13T00:05:19.196Z,0.00
2018-01-13T00:05:54.293Z,0.00
2018-01-13T00:06:29.709Z,0.00
2018-01-13T00:07:05.043Z,0.00
2018-01-13T00:07:40.449Z,0.00
2018-01-13T00:08:15.867Z,0.00
2018-01-13T00:08:51.361Z,0.00
2018-01-13T00:09:26.862Z,0.00
2018-01-13T00:10:02.277Z,0.00
2018-01-13T00:10:37.792Z,0.00
2018-01-13T00:11:13.014Z,0.00
2018-01-13T00:11:48.288Z,0.00
2018-01-13T00:12:23.982Z,0.00
2018-01-13T00:12:59.567Z,0.00
2018-01-13T00:13:34.677Z,0.00
2018-01-13T00:14:10.973Z,0.00
2018-01-13T00:14:46.188Z,0.00
2018-01-13T00:15:21.404Z,0.00
2018-01-13T00:15:56.485Z,0.00
2018-01-13T00:16:31.797Z,0.00
2018-01-13T00:17:07.035Z,0.00
2018-01-13T00:17:42.234Z,0.00
2018-01-13T00:18:17.533Z,0.00
2018-01-13T00:18:52.624Z,0.00
2018-01-13T00:19:28.133Z,0.00
2018-01-13T00:20:06.311Z,0.00
2018-01-13T00:20:41.536Z,0.00
2018-01-13T00:21:16.837Z,0.00
2018-01-13T00:21:52.016Z,0.00
2018-01-13T00:22:27.349Z,0.00
2018-01-13T00:23:02.654Z,0.00
2018-01-13T00:23:38.075Z,0.00
2018-01-13T00:24:13.398Z,0.00
2018-01-13T00:24:48.472Z,0.00
2018-01-13T00:25:24.181Z,0.00
2018-01-13T00:25:59.369Z,0.00
2018-01-13T00:26:34.874Z,0.00
2018-01-13T00:27:10.093Z,0.00
2018-01-13T00:27:45.301Z,0.00
2018-01-13T00:28:20.709Z,0.00
2018-01-13T00:28:55.987Z,0.00
2018-01-13T00:29:31.586Z,0.00
2018-01-13T00:30:06.858Z,0.00
2018-01-13T00:30:45.760Z,0.00
2018-01-13T00:31:20.963Z,0.00
2018-01-13T00:31:56.248Z,0.00
2018-01-13T00:32:31.681Z,0.00
2018-01-13T00:33:06.859Z,0.00
2018-01-13T00:33:42.059Z,0.00
2018-01-13T00:34:17.261Z,0.00
2018-01-13T00:34:52.340Z,0.00
2018-01-13T00:35:27.651Z,0.00
2018-01-13T00:36:02.916Z,0.00
2018-01-13T00:36:38.214Z,0.00
2018-01-13T00:37:13.619Z,0.00
2018-01-13T00:37:48.913Z,0.00
2018-01-13T00:38:24.320Z,0.00
2018-01-13T00:38:59.701Z,0.00
2018-01-13T00:39:34.906Z,0.00
2018-01-13T00:40:10.088Z,0.00
2018-01-13T00:40:45.584Z,0.00
2018-01-13T00:41:20.790Z,0.00
2018-01-13T00:41:55.964Z,0.00
2018-01-13T00:42:31.287Z,0.00
2018-01-13T00:43:06.478Z,0.00
2018-01-13T00:43:41.790Z,0.00
2018-01-13T00:44:16.890Z,0.00
2018-01-13T00:44:52.124Z,0.00
2018-01-13T00:45:27.184Z,0.00
2018-01-13T00:46:02.851Z,0.00
2018-01-13T00:46:38.066Z,0.00
2018-01-13T00:47:13.374Z,0.00
2018-01-13T00:47:48.576Z,0.00
2018-01-13T00:48:23.771Z,0.00
2018-01-13T00:48:59.060Z,0.00
2018-01-13T00:49:34.372Z,0.00
2018-01-13T00:50:09.672Z,0.00
2018-01-13T00:50:45.057Z,0.00
2018-01-13T00:51:20.253Z,0.00
2018-01-13T00:51:55.428Z,0.00
2018-01-13T00:52:30.766Z,0.00
2018-01-13T00:53:06.041Z,0.00
2018-01-13T00:53:41.351Z,0.00
2018-01-13T00:54:16.752Z,0.00
2018-01-13T00:54:52.143Z,0.00
2018-01-13T00:55:27.451Z,0.00
2018-01-13T00:56:02.420Z,0.00
2018-01-13T00:56:37.726Z,0.00
2018-01-13T00:57:13.027Z,0.00
2018-01-13T00:57:48.430Z,0.00
2018-01-13T00:58:23.835Z,0.00
2018-01-13T00:58:59.324Z,0.00
2018-01-13T00:59:34.625Z,0.00
2018-01-13T01:00:10.203Z,0.00
2018-01-13T01:00:45.610Z,0.00
2018-01-13T01:01:20.820Z,0.00
2018-01-13T01:01:56.295Z,0.00
2018-01-13T01:02:31.799Z,0.00
2018-01-13T01:03:07.015Z,0.00
2018-01-13T01:03:42.331Z,0.00
2018-01-13T01:04:17.632Z,0.00
2018-01-13T01:04:53.010Z,0.00
2018-01-13T01:05:28.606Z,0.00
2018-01-13T01:06:03.817Z,0.00
2018-01-13T01:06:38.813Z,0.00
2018-01-13T01:07:14.226Z,0.00
2018-01-13T01:07:49.525Z,0.00
2018-01-13T01:08:24.720Z,0.00
2018-01-13T01:09:00.904Z,0.00
2018-01-13T01:09:36.319Z,0.00
2018-01-13T01:10:11.519Z,0.00
2018-01-13T01:10:46.803Z,0.00
2018-01-13T01:11:24.503Z,0.00
2018-01-13T01:11:59.772Z,0.00
2018-01-13T01:12:35.187Z,0.00
2018-01-13T01:13:10.503Z,0.00
2018-01-13T01:13:45.707Z,0.00
2018-01-13T01:14:20.817Z,0.00
2018-01-13T01:14:55.886Z,0.00
2018-01-13T01:15:31.491Z,0.00
2018-01-13T01:16:07.029Z,0.00
2018-01-13T01:16:42.338Z,0.00
2018-01-13T01:17:20.855Z,0.00
2018-01-13T01:17:56.253Z,0.00
2018-01-13T01:18:31.455Z,0.00
2018-01-13T01:19:06.726Z,0.00
2018-01-13T01:19:44.432Z,0.00
2018-01-13T01:20:20.037Z,0.00
2018-01-13T01:20:58.221Z,0.00
2018-01-13T01:21:33.534Z,0.00
2018-01-13T01:22:08.804Z,0.00
2018-01-13T01:22:44.221Z,0.00
2018-01-13T01:23:19.657Z,0.00
2018-01-13T01:23:55.033Z,0.00
2018-01-13T01:24:30.239Z,0.00
2018-01-13T01:25:05.622Z,0.00
2018-01-13T01:25:40.613Z,0.00
2018-01-13T01:26:15.910Z,0.00
2018-01-13T01:26:51.091Z,0.00
2018-01-13T01:27:26.791Z,0.00
2018-01-13T01:28:01.798Z,0.00
2018-01-13T01:28:37.300Z,0.00
2018-01-13T01:29:12.909Z,0.00
2018-01-13T01:29:47.888Z,0.00
2018-01-13T01:30:23.195Z,0.00
2018-01-13T01:30:58.476Z,0.00
2018-01-13T01:31:33.674Z,0.00
2018-01-13T01:32:08.850Z,0.00
2018-01-13T01:32:44.054Z,0.00
2018-01-13T01:33:19.378Z,0.00
2018-01-13T01:33:54.671Z,0.00
2018-01-13T01:34:30.080Z,0.00
2018-01-13T01:35:05.344Z,0.00
2018-01-13T01:35:40.753Z,0.00
2018-01-13T01:36:15.848Z,0.00
2018-01-13T01:36:51.020Z,0.00
2018-01-13T01:37:26.640Z,0.00
2018-01-13T01:38:01.746Z,0.00
2018-01-13T01:38:37.168Z,0.00
2018-01-13T01:39:12.575Z,0.00
2018-01-13T01:39:47.543Z,0.00
2018-01-13T01:40:22.661Z,0.00
2018-01-13T01:40:57.931Z,0.00
2018-01-13T01:41:33.031Z,0.00
2018-01-13T01:42:08.409Z,0.00
2018-01-13T01:42:43.712Z,0.00
2018-01-13T01:43:18.943Z,0.00
2018-01-13T01:43:54.309Z,0.00
2018-01-13T01:44:29.809Z,0.00
2018-01-13T01:45:04.990Z,0.00
2018-01-13T01:45:40.789Z,0.00
2018-01-13T01:46:16.204Z,0.00
2018-01-13T01:46:51.786Z,0.00
2018-01-13T01:47:27.196Z,0.00
2018-01-13T01:48:02.760Z,0.00
2018-01-13T01:48:38.402Z,0.00
2018-01-13T01:49:13.497Z,0.00
2018-01-13T01:49:49.083Z,0.00
2018-01-13T01:50:24.282Z,0.00
2018-01-13T01:50:59.665Z,0.00
2018-01-13T01:51:34.967Z,0.00
2018-01-13T01:52:10.477Z,0.00
2018-01-13T01:52:45.557Z,0.00
2018-01-13T01:53:21.061Z,0.00
2018-01-13T01:53:56.372Z,0.00
2018-01-13T01:54:31.788Z,0.00
2018-01-13T01:55:07.279Z,0.00
2018-01-13T01:55:42.794Z,0.00
2018-01-13T01:56:18.306Z,0.00
2018-01-13T01:56:53.380Z,0.00
2018-01-13T01:57:28.694Z,0.00
2018-01-13T01:58:03.863Z,0.00
2018-01-13T01:58:39.179Z,0.00
2018-01-13T01:59:14.529Z,0.00
2018-01-13T01:59:49.912Z,0.00
2018-01-13T02:00:25.432Z,0.00
2018-01-13T02:01:00.910Z,0.00
2018-01-13T02:01:35.807Z,0.00
2018-01-13T02:02:10.711Z,0.00
2018-01-13T02:02:45.999Z,0.00
2018-01-13T02:03:21.319Z,0.00
2018-01-13T02:03:56.902Z,0.00
2018-01-13T02:04:32.131Z,0.00
2018-01-13T02:05:10.487Z,0.00
2018-01-13T02:05:47.662Z,0.00
2018-01-13T02:06:24.564Z,0.00
2018-01-13T02:06:59.945Z,0.00
2018-01-13T02:07:35.342Z,0.00
2018-01-13T02:08:10.950Z,0.00
2018-01-13T02:08:46.519Z,0.00
2018-01-13T02:09:21.721Z,0.00
2018-01-13T02:09:57.238Z,0.00
2018-01-13T02:10:32.946Z,0.00
2018-01-13T02:11:08.541Z,0.00
2018-01-13T02:11:43.856Z,0.00
2018-01-13T02:12:19.271Z,0.00
2018-01-13T02:12:54.665Z,0.00
2018-01-13T02:13:29.963Z,0.00
2018-01-13T02:14:05.258Z,0.00
2018-01-13T02:14:40.876Z,0.00
2018-01-13T02:15:16.632Z,0.00
2018-01-13T02:15:51.927Z,0.00
2018-01-13T02:16:27.249Z,0.00
2018-01-13T02:17:02.617Z,0.00
2018-01-13T02:17:37.842Z,0.00
2018-01-13T02:18:13.353Z,0.00
2018-01-13T02:18:48.339Z,0.00
2018-01-13T02:19:23.882Z,0.00
2018-01-13T02:19:59.063Z,0.00
2018-01-13T02:20:34.409Z,0.00
2018-01-13T02:21:10.226Z,0.00
2018-01-13T02:21:45.544Z,0.00
2018-01-13T02:22:20.782Z,0.00
2018-01-13T02:22:56.094Z,0.00
2018-01-13T02:23:31.395Z,0.00
2018-01-13T02:24:08.794Z,0.00
2018-01-13T02:24:44.002Z,0.00
2018-01-13T02:25:19.535Z,0.00
2018-01-13T02:25:55.057Z,0.00
2018-01-13T02:26:30.369Z,0.00
2018-01-13T02:27:05.647Z,0.00
2018-01-13T02:27:41.058Z,0.00
2018-01-13T02:28:16.375Z,0.00
2018-01-13T02:28:51.849Z,0.00
2018-01-13T02:29:27.074Z,0.00
2018-01-13T02:30:02.471Z,0.00
2018-01-13T02:30:39.003Z,0.00
2018-01-13T02:31:14.549Z,0.00
2018-01-13T02:31:49.949Z,0.00
2018-01-13T02:32:25.262Z,0.00
2018-01-13T02:33:00.756Z,0.00
2018-01-13T02:33:36.167Z,0.00
2018-01-13T02:34:11.376Z,0.00
2018-01-13T02:34:46.663Z,0.00
2018-01-13T02:35:21.785Z,0.00
2018-01-13T02:35:57.408Z,0.00
2018-01-13T02:36:32.954Z,0.00
2018-01-13T02:37:08.233Z,0.00
2018-01-13T02:37:43.452Z,0.00
2018-01-13T02:38:18.884Z,0.00
2018-01-13T02:38:54.073Z,0.00
2018-01-13T02:39:29.496Z,0.00
2018-01-13T02:40:04.886Z,0.00
2018-01-13T02:40:40.308Z,0.00
2018-01-13T02:41:15.520Z,0.00
2018-01-13T02:41:51.040Z,0.00
2018-01-13T02:42:26.347Z,0.00
2018-01-13T02:43:01.842Z,0.00
2018-01-13T02:43:37.465Z,0.00
2018-01-13T02:44:12.785Z,0.00
2018-01-13T02:44:47.969Z,0.00
2018-01-13T02:45:23.491Z,0.00
2018-01-13T02:45:58.493Z,0.00
2018-01-13T02:46:33.904Z,0.00
2018-01-13T02:47:09.210Z,0.00
2018-01-13T02:47:44.436Z,0.00
2018-01-13T02:48:19.971Z,0.00
2018-01-13T02:48:55.685Z,0.00
2018-01-13T02:49:30.810Z,0.00
2018-01-13T02:50:06.193Z,0.00
2018-01-13T02:50:42.207Z,0.00
2018-01-13T02:51:17.705Z,0.00
2018-01-13T02:51:53.216Z,0.00
2018-01-13T02:52:28.772Z,0.00
2018-01-13T02:53:04.564Z,0.00
2018-01-13T02:53:39.890Z,0.00
2018-01-13T02:54:15.214Z,0.00
2018-01-13T02:54:50.600Z,0.00
2018-01-13T02:55:25.916Z,0.00
2018-01-13T02:56:01.212Z,0.00
2018-01-13T02:56:36.435Z,0.00
2018-01-13T02:57:11.785Z,0.00
2018-01-13T02:57:47.114Z,0.00
2018-01-13T02:58:22.312Z,0.00
2018-01-13T02:58:57.692Z,0.00
2018-01-13T02:59:33.033Z,0.00
2018-01-13T03:00:08.383Z,0.00
2018-01-13T03:00:44.116Z,0.00
2018-01-13T03:01:19.496Z,0.00
2018-01-13T03:01:54.585Z,0.00
2018-01-13T03:02:30.296Z,0.00
2018-01-13T03:03:05.917Z,0.00
2018-01-13T03:03:41.529Z,0.00
2018-01-13T03:04:16.744Z,0.00
2018-01-13T03:04:55.135Z,0.00
2018-01-13T03:05:30.535Z,0.00
2018-01-13T03:06:05.524Z,0.00
2018-01-13T03:06:40.945Z,0.00
2018-01-13T03:07:16.254Z,0.00
2018-01-13T03:07:51.441Z,0.00
2018-01-13T03:08:26.780Z,0.00
2018-01-13T03:09:02.065Z,0.00
2018-01-13T03:09:37.381Z,0.00
2018-01-13T03:10:13.104Z,0.00
2018-01-13T03:10:48.686Z,0.00
2018-01-13T03:11:24.102Z,0.00
2018-01-13T03:11:59.088Z,0.00
2018-01-13T03:12:34.494Z,0.00
2018-01-13T03:13:09.615Z,0.00
2018-01-13T03:13:45.241Z,0.00
2018-01-13T03:14:20.764Z,0.00
2018-01-13T03:14:55.847Z,0.00
2018-01-13T03:15:31.062Z,0.00
2018-01-13T03:16:06.280Z,0.00
2018-01-13T03:16:41.377Z,0.00
2018-01-13T03:17:16.892Z,0.00
2018-01-13T03:17:52.375Z,0.00
2018-01-13T03:18:27.693Z,0.00
2018-01-13T03:19:02.803Z,0.00
2018-01-13T03:19:38.114Z,0.00
2018-01-13T03:20:13.524Z,0.00
2018-01-13T03:20:48.800Z,0.00
2018-01-13T03:21:24.012Z,0.00
2018-01-13T03:21:59.283Z,0.00
2018-01-13T03:22:35.088Z,0.00
2018-01-13T03:23:10.488Z,0.00
2018-01-13T03:23:45.867Z,0.00
2018-01-13T03:24:21.195Z,0.00
2018-01-13T03:24:56.773Z,0.00
2018-01-13T03:25:31.889Z,0.00
2018-01-13T03:26:06.975Z,0.00
2018-01-13T03:26:42.282Z,0.00
2018-01-13T03:27:17.693Z,0.00
2018-01-13T03:27:52.970Z,0.00
2018-01-13T03:28:28.168Z,0.00
2018-01-13T03:29:03.657Z,0.00
2018-01-13T03:29:39.104Z,0.00
2018-01-13T03:30:14.608Z,0.00
2018-01-13T03:30:49.898Z,0.00
2018-01-13T03:31:25.106Z,0.00
2018-01-13T03:32:00.585Z,0.00
2018-01-13T03:32:35.884Z,0.00
2018-01-13T03:33:11.187Z,0.00
2018-01-13T03:33:46.464Z,0.00
2018-01-13T03:34:21.966Z,0.00
2018-01-13T03:34:57.182Z,0.00
2018-01-13T03:35:32.694Z,0.00
2018-01-13T03:36:08.085Z,0.00
2018-01-13T03:36:43.602Z,0.00
2018-01-13T03:37:18.817Z,0.00
2018-01-13T03:37:54.096Z,0.00
2018-01-13T03:38:29.304Z,0.00
2018-01-13T03:39:04.798Z,0.00
2018-01-13T03:39:40.598Z,0.00
2018-01-13T03:40:15.726Z,0.00
2018-01-13T03:40:50.904Z,0.00
2018-01-13T03:41:26.313Z,0.00
2018-01-13T03:42:01.602Z,0.00
2018-01-13T03:42:36.998Z,0.00
2018-01-13T03:43:12.504Z,0.00
2018-01-13T03:43:47.890Z,0.00
2018-01-13T03:44:23.491Z,0.00
2018-01-13T03:44:59.082Z,0.00
2018-01-13T03:45:34.266Z,0.00
2018-01-13T03:46:12.329Z,0.00
2018-01-13T03:46:47.610Z,0.00
2018-01-13T03:47:22.925Z,0.00
2018-01-13T03:47:58.295Z,0.00
2018-01-13T03:48:33.695Z,0.00
2018-01-13T03:49:08.977Z,0.00
2018-01-13T03:49:44.275Z,0.00
2018-01-13T03:50:19.787Z,0.00
2018-01-13T03:50:55.690Z,0.00
2018-01-13T03:51:31.294Z,0.00
2018-01-13T03:52:06.579Z,0.00
2018-01-13T03:52:41.920Z,0.00
2018-01-13T03:53:17.111Z,0.00
2018-01-13T03:53:52.489Z,0.00
2018-01-13T03:54:27.810Z,0.00
2018-01-13T03:55:03.186Z,0.00
2018-01-13T03:55:38.892Z,0.00
2018-01-13T03:56:14.426Z,0.00
2018-01-13T03:56:49.908Z,0.00
2018-01-13T03:57:25.142Z,0.00
2018-01-13T03:58:00.419Z,0.00
2018-01-13T03:58:35.529Z,0.00
2018-01-13T03:59:10.623Z,0.00
2018-01-13T03:59:46.108Z,0.00
2018-01-13T04:00:21.312Z,0.00
2018-01-13T04:00:57.900Z,0.00
2018-01-13T04:01:33.129Z,0.00
2018-01-13T04:02:08.414Z,0.00
2018-01-13T04:02:43.818Z,0.00
2018-01-13T04:03:19.234Z,0.00
2018-01-13T04:03:54.515Z,0.00
2018-01-13T04:04:29.723Z,0.00
2018-01-13T04:05:05.200Z,0.00
2018-01-13T04:05:40.601Z,0.00
2018-01-13T04:06:15.920Z,0.00
2018-01-13T04:06:51.244Z,0.00
2018-01-13T04:07:26.550Z,0.00
2018-01-13T04:08:01.930Z,0.00
2018-01-13T04:08:37.333Z,0.00
2018-01-13T04:09:12.632Z,0.00
2018-01-13T04:09:47.920Z,0.00
2018-01-13T04:10:23.217Z,0.00
2018-01-13T04:10:58.407Z,0.00
2018-01-13T04:11:33.806Z,0.00
2018-01-13T04:12:09.017Z,0.00
2018-01-13T04:12:44.518Z,0.00
2018-01-13T04:13:20.136Z,0.00
2018-01-13T04:13:55.613Z,0.00
2018-01-13T04:14:30.814Z,0.00
2018-01-13T04:15:06.205Z,0.00
2018-01-13T04:15:41.602Z,0.00
2018-01-13T04:16:16.706Z,0.00
2018-01-13T04:16:51.989Z,0.00
2018-01-13T04:17:27.430Z,0.00
2018-01-13T04:18:03.103Z,0.00
2018-01-13T04:18:38.516Z,0.00
2018-01-13T04:19:14.046Z,0.00
2018-01-13T04:19:49.417Z,0.00
2018-01-13T04:20:24.923Z,0.00
2018-01-13T04:21:00.246Z,0.00
2018-01-13T04:21:35.700Z,0.00
2018-01-13T04:22:11.135Z,0.00
2018-01-13T04:22:46.651Z,0.00
2018-01-13T04:23:21.872Z,0.00
2018-01-13T04:23:57.372Z,0.00
2018-01-13T04:24:32.682Z,0.00
2018-01-13T04:25:07.781Z,0.00
2018-01-13T04:25:43.887Z,0.00
2018-01-13T04:26:19.289Z,0.00
2018-01-13T04:26:54.570Z,0.00
2018-01-13T04:27:29.989Z,0.00
2018-01-13T04:28:05.402Z,0.00
2018-01-13T04:28:40.543Z,0.00
2018-01-13T04:29:15.752Z,0.00
2018-01-13T04:29:51.152Z,0.00
2018-01-13T04:30:26.469Z,0.00
2018-01-13T04:31:01.846Z,0.00
2018-01-13T04:31:37.167Z,0.00
2018-01-13T04:32:12.494Z,0.00
2018-01-13T04:32:47.993Z,0.00
2018-01-13T04:33:23.364Z,0.00
2018-01-13T04:33:58.954Z,0.00
2018-01-13T04:34:34.350Z,0.00
2018-01-13T04:35:09.544Z,0.00
2018-01-13T04:35:44.958Z,0.00
2018-01-13T04:36:20.369Z,0.00
2018-01-13T04:36:55.750Z,0.00
2018-01-13T04:37:31.266Z,0.00
2018-01-13T04:38:06.474Z,0.00
2018-01-13T04:38:42.307Z,0.00
2018-01-13T04:39:17.725Z,0.00
2018-01-13T04:39:52.913Z,0.00
2018-01-13T04:40:28.240Z,0.00
2018-01-13T04:41:03.744Z,0.00
2018-01-13T04:41:39.049Z,0.00
2018-01-13T04:42:14.862Z,0.00
2018-01-13T04:42:50.356Z,0.00
2018-01-13T04:43:25.877Z,0.00
2018-01-13T04:44:01.415Z,0.00
2018-01-13T04:44:36.822Z,0.00
2018-01-13T04:45:12.144Z,0.00
2018-01-13T04:45:47.212Z,0.00
2018-01-13T04:46:22.517Z,0.00
2018-01-13T04:46:57.710Z,0.00
2018-01-13T04:47:33.030Z,0.00
2018-01-13T04:48:08.411Z,0.00
2018-01-13T04:48:43.934Z,0.00
2018-01-13T04:49:19.464Z,0.00
2018-01-13T04:49:54.936Z,0.00
2018-01-13T04:50:30.658Z,0.00
2018-01-13T04:51:05.945Z,0.00
2018-01-13T04:51:41.452Z,0.00
2018-01-13T04:52:16.857Z,0.00
2018-01-13T04:52:52.133Z,0.00
2018-01-13T04:53:27.443Z,0.00
2018-01-13T04:54:02.916Z,0.00
2018-01-13T04:54:38.464Z,0.00
2018-01-13T04:55:13.586Z,0.00
2018-01-13T04:55:48.998Z,0.00
2018-01-13T04:56:24.722Z,0.00
2018-01-13T04:57:00.007Z,0.00
2018-01-13T04:57:36.220Z,0.00
2018-01-13T04:58:11.641Z,0.00
2018-01-13T04:58:47.236Z,0.00
2018-01-13T04:59:22.532Z,0.00
2018-01-13T04:59:57.959Z,0.00
2018-01-13T05:00:33.370Z,0.00
2018-01-13T05:01:08.756Z,0.00
2018-01-13T05:01:44.280Z,0.00
2018-01-13T05:02:19.791Z,0.00
2018-01-13T05:02:54.972Z,0.00
2018-01-13T05:03:30.686Z,0.00
2018-01-13T05:04:05.960Z,0.00
2018-01-13T05:04:41.187Z,0.00
2018-01-13T05:05:16.430Z,0.00
2018-01-13T05:05:51.743Z,0.00
2018-01-13T05:06:27.240Z,0.00
2018-01-13T05:07:02.419Z,0.00
2018-01-13T05:07:37.638Z,0.00
2018-01-13T05:08:12.853Z,0.00
2018-01-13T05:08:48.248Z,0.00
2018-01-13T05:09:23.668Z,0.00
2018-01-13T05:09:59.059Z,0.00
2018-01-13T05:10:34.492Z,0.00
2018-01-13T05:11:09.984Z,0.00
2018-01-13T05:11:45.106Z,0.00
2018-01-13T05:12:20.420Z,0.00
2018-01-13T05:12:55.728Z,0.00
2018-01-13T05:13:31.021Z,0.00
2018-01-13T05:14:06.303Z,0.00
2018-01-13T05:14:41.504Z,0.00
2018-01-13T05:15:16.900Z,0.00
2018-01-13T05:15:52.219Z,0.00
2018-01-13T05:16:27.328Z,0.00
2018-01-13T05:17:02.713Z,0.00
2018-01-13T05:17:38.505Z,0.00
2018-01-13T05:18:13.714Z,0.00
2018-01-13T05:18:48.989Z,0.00
2018-01-13T05:19:24.292Z,0.00
2018-01-13T05:19:59.770Z,0.00
2018-01-13T05:20:35.773Z,0.00
2018-01-13T05:21:11.208Z,0.00
2018-01-13T05:21:46.587Z,0.00
2018-01-13T05:22:22.002Z,0.00
2018-01-13T05:22:59.388Z,0.00
2018-01-13T05:23:34.889Z,0.00
2018-01-13T05:24:10.275Z,0.00
2018-01-13T05:24:45.503Z,0.00
2018-01-13T05:25:23.907Z,0.00
2018-01-13T05:26:01.777Z,0.00
2018-01-13T05:26:37.923Z,0.00
2018-01-13T05:27:14.043Z,0.00
2018-01-13T05:27:49.326Z,0.00
2018-01-13T05:28:24.536Z,0.00
2018-01-13T05:29:00.025Z,0.00
2018-01-13T05:29:35.523Z,0.00
2018-01-13T05:30:10.938Z,0.00
2018-01-13T05:30:51.214Z,0.00
2018-01-13T05:31:26.721Z,0.00
2018-01-13T05:32:02.318Z,0.00
2018-01-13T05:32:37.825Z,0.00
2018-01-13T05:33:13.229Z,0.00
2018-01-13T05:33:48.516Z,0.00
2018-01-13T05:34:24.458Z,0.00
2018-01-13T05:34:59.637Z,0.00
2018-01-13T05:35:35.127Z,0.00
2018-01-13T05:36:10.408Z,0.00
2018-01-13T05:36:45.803Z,0.00
2018-01-13T05:37:21.028Z,0.00
2018-01-13T05:37:56.211Z,0.00
2018-01-13T05:38:31.415Z,0.00
2018-01-13T05:39:06.897Z,0.00
2018-01-13T05:39:42.305Z,0.00
2018-01-13T05:40:17.605Z,0.00
2018-01-13T05:40:52.780Z,0.00
2018-01-13T05:41:27.983Z,0.00
2018-01-13T05:42:03.263Z,0.00
2018-01-13T05:42:38.702Z,0.00
2018-01-13T05:43:13.907Z,0.00
2018-01-13T05:43:50.005Z,0.00
2018-01-13T05:44:25.238Z,0.00
2018-01-13T05:45:02.206Z,0.00
2018-01-13T05:45:42.053Z,0.00
2018-01-13T05:46:17.471Z,0.00
2018-01-13T05:46:52.633Z,0.00
2018-01-13T05:47:28.048Z,0.00
2018-01-13T05:48:03.491Z,0.00
2018-01-13T05:48:39.394Z,0.00
2018-01-13T05:49:15.110Z,0.00
2018-01-13T05:49:50.382Z,0.00
2018-01-13T05:50:25.686Z,0.00
2018-01-13T05:51:01.364Z,0.00
2018-01-13T05:51:36.868Z,0.00
2018-01-13T05:52:12.166Z,0.00
2018-01-13T05:52:48.253Z,0.00
2018-01-13T05:53:23.297Z,0.00
2018-01-13T05:53:58.690Z,0.00
2018-01-13T05:54:33.806Z,0.00
2018-01-13T05:55:09.285Z,0.00
2018-01-13T05:55:45.491Z,0.00
2018-01-13T05:56:20.895Z,0.00
2018-01-13T05:56:56.286Z,0.00
2018-01-13T05:57:31.611Z,0.00
2018-01-13T05:58:06.610Z,0.00
2018-01-13T05:58:41.955Z,0.00
2018-01-13T05:59:17.161Z,0.00
2018-01-13T05:59:52.548Z,0.00
2018-01-13T06:00:28.081Z,0.00
2018-01-13T06:01:03.155Z,0.00
2018-01-13T06:01:38.265Z,0.00
2018-01-13T06:02:13.772Z,0.00
2018-01-13T06:02:50.472Z,0.00
2018-01-13T06:03:26.059Z,0.00
2018-01-13T06:04:01.168Z,0.00
2018-01-13T06:04:36.687Z,0.00
2018-01-13T06:05:12.197Z,0.00
2018-01-13T06:05:48.189Z,0.00
2018-01-13T06:06:23.716Z,0.00
2018-01-13T06:06:59.613Z,0.00
2018-01-13T06:07:34.820Z,0.00
2018-01-13T06:08:11.117Z,0.00
2018-01-13T06:08:46.436Z,0.00
2018-01-13T06:09:22.098Z,0.00
2018-01-13T06:09:57.289Z,0.00
2018-01-13T06:10:32.686Z,0.00
2018-01-13T06:11:08.974Z,0.00
2018-01-13T06:11:44.277Z,0.00
2018-01-13T06:12:19.599Z,0.00
2018-01-13T06:12:56.377Z,0.00
2018-01-13T06:13:31.894Z,0.00
2018-01-13T06:14:07.672Z,0.00
2018-01-13T06:14:42.907Z,0.00
2018-01-13T06:15:18.133Z,0.00
2018-01-13T06:15:53.405Z,0.00
2018-01-13T06:16:31.411Z,0.00
2018-01-13T06:17:06.797Z,0.00
2018-01-13T06:17:42.010Z,0.00
2018-01-13T06:18:17.323Z,0.00
2018-01-13T06:18:52.933Z,0.00
2018-01-13T06:19:28.038Z,0.00
2018-01-13T06:20:03.376Z,0.00
2018-01-13T06:20:38.672Z,0.00
2018-01-13T06:21:14.173Z,0.00
2018-01-13T06:21:49.362Z,0.00
2018-01-13T06:22:24.782Z,0.00
2018-01-13T06:23:00.065Z,0.00
2018-01-13T06:23:35.392Z,0.00
2018-01-13T06:24:10.885Z,0.00
2018-01-13T06:24:46.480Z,0.00
2018-01-13T06:25:21.846Z,0.00
2018-01-13T06:26:01.005Z,0.00
2018-01-13T06:26:38.915Z,0.00
2018-01-13T06:27:14.224Z,0.00
2018-01-13T06:27:49.306Z,0.00
2018-01-13T06:28:24.417Z,0.00
2018-01-13T06:28:59.804Z,0.00
2018-01-13T06:29:35.863Z,0.00
2018-01-13T06:30:11.064Z,0.00
2018-01-13T06:30:46.967Z,0.00
2018-01-13T06:31:22.667Z,0.00
2018-01-13T06:31:58.240Z,0.00
2018-01-13T06:32:33.744Z,0.00
2018-01-13T06:33:09.118Z,0.00
2018-01-13T06:33:44.613Z,0.00
2018-01-13T06:34:20.216Z,0.00
2018-01-13T06:34:55.493Z,0.00
2018-01-13T06:35:30.737Z,0.00
2018-01-13T06:36:06.090Z,0.00
2018-01-13T06:36:43.997Z,0.00
2018-01-13T06:37:19.397Z,0.00
2018-01-13T06:37:56.073Z,0.00
2018-01-13T06:38:31.178Z,0.00
2018-01-13T06:39:06.260Z,0.00
2018-01-13T06:39:41.559Z,0.00
2018-01-13T06:40:16.866Z,0.00
2018-01-13T06:40:57.442Z,0.00
2018-01-13T06:41:34.180Z,0.00
2018-01-13T06:42:09.752Z,0.00
2018-01-13T06:42:45.548Z,0.00
2018-01-13T06:43:20.848Z,0.00
2018-01-13T06:43:56.131Z,0.00
2018-01-13T06:44:31.434Z,0.00
2018-01-13T06:45:06.805Z,0.00
2018-01-13T06:45:42.222Z,0.00
2018-01-13T06:46:17.524Z,0.00
2018-01-13T06:46:52.937Z,0.00
2018-01-13T06:47:28.544Z,0.00
2018-01-13T06:48:03.923Z,0.00
2018-01-13T06:48:39.225Z,0.00
2018-01-13T06:49:14.622Z,0.00
2018-01-13T06:49:49.709Z,0.00
2018-01-13T06:50:25.008Z,0.00
2018-01-13T06:51:00.206Z,0.00
2018-01-13T06:51:35.999Z,0.00
2018-01-13T06:52:11.480Z,0.00
2018-01-13T06:52:49.868Z,0.00
2018-01-13T06:53:25.068Z,0.00
2018-01-13T06:54:00.243Z,0.00
2018-01-13T06:54:35.751Z,0.00
2018-01-13T06:55:11.555Z,0.00
2018-01-13T06:55:48.936Z,0.00
2018-01-13T06:56:24.437Z,0.00
2018-01-13T06:56:59.618Z,0.00
2018-01-13T06:57:35.244Z,0.00
2018-01-13T06:58:10.621Z,0.00
2018-01-13T06:58:45.818Z,4.00
2018-01-13T06:59:21.422Z,4.00
2018-01-13T06:59:56.907Z,0.00
2018-01-13T07:00:32.602Z,0.00
2018-01-13T07:01:11.198Z,4.00
2018-01-13T07:01:46.478Z,4.00
2018-01-13T07:02:21.681Z,4.00
2018-01-13T07:03:00.984Z,0.00
2018-01-13T07:03:36.489Z,4.00
2018-01-13T07:04:11.892Z,4.00
2018-01-13T07:04:48.269Z,4.00
2018-01-13T07:05:26.804Z,4.00
2018-01-13T07:06:01.868Z,4.00
2018-01-13T07:06:37.181Z,4.00
2018-01-13T07:07:12.788Z,4.00
2018-01-13T07:07:48.166Z,8.00
2018-01-13T07:08:23.290Z,4.00
2018-01-13T07:08:58.363Z,8.00
2018-01-13T07:09:33.966Z,8.00
2018-01-13T07:10:09.135Z,8.00
2018-01-13T07:10:46.737Z,12.00
2018-01-13T07:11:23.132Z,12.00
2018-01-13T07:11:58.205Z,12.00
2018-01-13T07:12:33.608Z,16.00
2018-01-13T07:13:08.983Z,16.00
2018-01-13T07:13:44.212Z,20.00
2018-01-13T07:14:19.608Z,20.00
2018-01-13T07:14:54.979Z,20.00
2018-01-13T07:15:30.590Z,24.00
2018-01-13T07:16:05.974Z,24.00
2018-01-13T07:16:41.669Z,28.00
2018-01-13T07:17:16.968Z,28.00
2018-01-13T07:17:52.363Z,28.00
2018-01-13T07:18:27.578Z,28.00
2018-01-13T07:19:02.978Z,32.00
2018-01-13T07:19:38.279Z,32.00
2018-01-13T07:20:13.584Z,36.00
2018-01-13T07:20:48.856Z,32.00
2018-01-13T07:21:24.960Z,36.00
2018-01-13T07:22:00.641Z,40.00
2018-01-13T07:22:36.238Z,40.00
2018-01-13T07:23:11.640Z,44.00
2018-01-13T07:23:47.122Z,48.00
2018-01-13T07:24:22.551Z,48.00
2018-01-13T07:24:58.428Z,48.00
2018-01-13T07:25:35.427Z,52.00
2018-01-13T07:26:11.924Z,60.00
2018-01-13T07:26:47.295Z,64.00
2018-01-13T07:27:22.611Z,68.00
2018-01-13T07:27:58.081Z,72.00
2018-01-13T07:28:33.481Z,76.00
2018-01-13T07:29:08.761Z,80.00
2018-01-13T07:29:44.096Z,80.00
2018-01-13T07:30:19.391Z,88.00
2018-01-13T07:30:54.761Z,88.00
2018-01-13T07:31:30.661Z,96.00
2018-01-13T07:32:05.838Z,100.00
2018-01-13T07:32:41.444Z,104.00
2018-01-13T07:33:16.950Z,108.00
2018-01-13T07:33:52.232Z,112.00
2018-01-13T07:34:28.044Z,116.00
2018-01-13T07:35:03.356Z,124.00
2018-01-13T07:35:41.982Z,128.00
2018-01-13T07:36:17.180Z,132.00
2018-01-13T07:36:52.259Z,140.00
2018-01-13T07:37:27.565Z,148.00
2018-01-13T07:38:03.038Z,156.00
2018-01-13T07:38:38.341Z,164.00
2018-01-13T07:39:13.737Z,172.00
2018-01-13T07:39:49.011Z,184.00
2018-01-13T07:40:24.336Z,188.00
2018-01-13T07:40:59.915Z,192.00
2018-01-13T07:41:35.160Z,204.00
2018-01-13T07:42:12.808Z,208.00
2018-01-13T07:42:48.092Z,216.00
2018-01-13T07:43:23.596Z,220.00
2018-01-13T07:43:58.969Z,232.00
2018-01-13T07:44:34.361Z,236.00
2018-01-13T07:45:09.537Z,244.00
2018-01-13T07:45:45.976Z,248.00
2018-01-13T07:46:21.411Z,260.00
2018-01-13T07:47:00.689Z,268.00
2018-01-13T07:47:39.484Z,272.00
2018-01-13T07:48:16.391Z,280.00
2018-01-13T07:48:51.677Z,284.00
2018-01-13T07:49:26.974Z,288.00
2018-01-13T07:50:02.353Z,296.00
2018-01-13T07:50:37.879Z,304.00